Aeroboteco Virtual Airlines! Uma nuvem a frente.



 INFORMAÇÕES METEOROLÓGICAS
METAR FOR SBMT
ADDS - METARS form results

(0951 UTC 29 January 2022)
Data provider http://aviationweather.gov/metar/data/
 
METAR text: SBMT 290900Z 26004KT 6000 SCT011 BKN013 19/18 Q1011
Conditions at: SBMT (MARTE (CIV/MIL) , BR) observed 0900 UTC 29 January 2022
Temperature: 19.0°C (66°F)
Dewpoint: 18.0°C (64°F) [RH = 94%]
Pressure (altimeter): 29.85 inches Hg (1011.0 mb)
Winds: from the W (260 degrees) at 5 MPH (4 knots; 2.1 m/s)
Visibility: 4 miles ( 6 km)
Ceiling: 1300 feet AGL
Clouds: scattered clouds at 1100 feet AGL
broken clouds at 1300 feet AGL
Weather: no significant weather observed at this time

 MAPA DO AEROPORTO

 INFORMAÇÕES DA PISTA
Pista 12 Tamanho da pista 5249 ft Largura da pista 147 ft
Elevação da pista 2379 ft Ranhura da pista 984 ft Proa da pista 100
Pista 30 Tamanho da pista 5249 ft Largura da pista 147 ft
Elevação da pista 2376 ft Ranhura da pista 492 ft Proa da pista 280

 FREQUÊNCIAS DO AEROPORTO
Tipo APP Nome SAO PAULO Frequência 119.8 MHZ
Tipo GND Nome GND Frequência 121.6 MHZ
Tipo OPS Nome OPS Frequência 122.5 MHZ
Tipo TWR Nome TWR Frequência 118.7 MHZ

 AUXÍLIOS DE NAVEGAÇÃO PRÓXIMOS AO AEROPORTO
Tipo NDB Nome Marte Frequência 260 KHZ